sensor_id;sensor_type;location;lat;lon;timestamp;P1;durP1;ratioP1;P2;durP2;ratioP2
66485;SDS011;53303;47.476;8.084;2023-06-10T00:01:08;7.95;;;3.33;;
66485;SDS011;53303;47.476;8.084;2023-06-10T00:03:34;7.00;;;3.60;;
66485;SDS011;53303;47.476;8.084;2023-06-10T00:05:59;7.47;;;4.00;;
66485;SDS011;53303;47.476;8.084;2023-06-10T00:08:24;6.82;;;3.80;;
66485;SDS011;53303;47.476;8.084;2023-06-10T00:10:50;7.57;;;4.15;;
66485;SDS011;53303;47.476;8.084;2023-06-10T00:13:18;6.72;;;4.25;;
66485;SDS011;53303;47.476;8.084;2023-06-10T00:15:43;7.28;;;3.67;;
66485;SDS011;53303;47.476;8.084;2023-06-10T00:18:09;7.45;;;3.92;;
66485;SDS011;53303;47.476;8.084;2023-06-10T00:20:37;7.70;;;3.38;;
66485;SDS011;53303;47.476;8.084;2023-06-10T00:23:04;6.35;;;3.58;;
66485;SDS011;53303;47.476;8.084;2023-06-10T00:25:31;9.02;;;3.78;;
66485;SDS011;53303;47.476;8.084;2023-06-10T00:27:58;7.30;;;3.78;;
66485;SDS011;53303;47.476;8.084;2023-06-10T00:30:25;6.55;;;4.03;;
66485;SDS011;53303;47.476;8.084;2023-06-10T00:32:51;9.88;;;4.35;;
66485;SDS011;53303;47.476;8.084;2023-06-10T00:35:21;12.05;;;4.43;;
66485;SDS011;53303;47.476;8.084;2023-06-10T00:37:49;7.03;;;4.10;;
66485;SDS011;53303;47.476;8.084;2023-06-10T00:40:14;8.25;;;4.07;;
66485;SDS011;53303;47.476;8.084;2023-06-10T00:42:40;8.45;;;3.80;;
66485;SDS011;53303;47.476;8.084;2023-06-10T00:45:05;10.95;;;3.70;;
66485;SDS011;53303;47.476;8.084;2023-06-10T00:47:31;8.10;;;4.38;;
66485;SDS011;53303;47.476;8.084;2023-06-10T00:49:57;6.72;;;3.50;;
66485;SDS011;53303;47.476;8.084;2023-06-10T00:52:23;13.48;;;4.53;;
66485;SDS011;53303;47.476;8.084;2023-06-10T00:54:52;7.18;;;4.07;;
66485;SDS011;53303;47.476;8.084;2023-06-10T00:57:18;7.75;;;3.90;;
66485;SDS011;53303;47.476;8.084;2023-06-10T00:59:47;7.57;;;4.28;;
66485;SDS011;53303;47.476;8.084;2023-06-10T01:02:13;8.50;;;3.83;;
66485;SDS011;53303;47.476;8.084;2023-06-10T01:04:39;8.23;;;3.60;;
66485;SDS011;53303;47.476;8.084;2023-06-10T01:10:02;9.05;;;4.13;;
66485;SDS011;53303;47.476;8.084;2023-06-10T01:15:17;7.88;;;3.38;;
66485;SDS011;53303;47.476;8.084;2023-06-10T01:20:42;7.10;;;4.20;;
66485;SDS011;53303;47.476;8.084;2023-06-10T01:23:09;9.48;;;3.50;;
66485;SDS011;53303;47.476;8.084;2023-06-10T01:34:18;7.72;;;4.20;;
66485;SDS011;53303;47.476;8.084;2023-06-10T01:36:47;7.68;;;4.38;;
66485;SDS011;53303;47.476;8.084;2023-06-10T01:39:17;8.00;;;3.80;;
66485;SDS011;53303;47.476;8.084;2023-06-10T01:41:45;6.20;;;3.70;;
66485;SDS011;53303;47.476;8.084;2023-06-10T01:44:17;9.02;;;4.40;;
66485;SDS011;53303;47.476;8.084;2023-06-10T01:46:43;6.22;;;3.97;;
66485;SDS011;53303;47.476;8.084;2023-06-10T01:49:08;6.25;;;3.95;;
66485;SDS011;53303;47.476;8.084;2023-06-10T01:51:34;9.48;;;4.43;;
66485;SDS011;53303;47.476;8.084;2023-06-10T01:53:59;6.57;;;3.88;;
66485;SDS011;53303;47.476;8.084;2023-06-10T01:56:25;9.98;;;3.75;;
66485;SDS011;53303;47.476;8.084;2023-06-10T01:58:50;7.57;;;3.55;;
66485;SDS011;53303;47.476;8.084;2023-06-10T02:01:15;7.57;;;3.60;;
66485;SDS011;53303;47.476;8.084;2023-06-10T02:03:44;10.55;;;4.38;;
66485;SDS011;53303;47.476;8.084;2023-06-10T02:06:09;10.65;;;4.10;;
66485;SDS011;53303;47.476;8.084;2023-06-10T02:08:35;10.50;;;4.38;;
66485;SDS011;53303;47.476;8.084;2023-06-10T02:11:00;9.20;;;4.07;;
66485;SDS011;53303;47.476;8.084;2023-06-10T02:13:26;6.80;;;4.03;;
66485;SDS011;53303;47.476;8.084;2023-06-10T02:15:51;8.25;;;4.18;;
66485;SDS011;53303;47.476;8.084;2023-06-10T02:18:18;7.57;;;3.38;;
66485;SDS011;53303;47.476;8.084;2023-06-10T02:20:45;9.30;;;4.78;;
66485;SDS011;53303;47.476;8.084;2023-06-10T02:23:11;8.15;;;4.05;;
66485;SDS011;53303;47.476;8.084;2023-06-10T02:25:36;8.98;;;4.30;;
66485;SDS011;53303;47.476;8.084;2023-06-10T02:28:02;6.10;;;4.13;;
66485;SDS011;53303;47.476;8.084;2023-06-10T02:30:28;6.80;;;3.90;;
66485;SDS011;53303;47.476;8.084;2023-06-10T02:32:56;6.65;;;3.60;;
66485;SDS011;53303;47.476;8.084;2023-06-10T02:35:22;8.38;;;3.45;;
66485;SDS011;53303;47.476;8.084;2023-06-10T02:37:49;7.10;;;4.20;;
66485;SDS011;53303;47.476;8.084;2023-06-10T02:40:15;9.80;;;3.85;;
66485;SDS011;53303;47.476;8.084;2023-06-10T02:42:41;6.63;;;4.30;;
66485;SDS011;53303;47.476;8.084;2023-06-10T02:45:06;8.18;;;4.10;;
66485;SDS011;53303;47.476;8.084;2023-06-10T02:47:32;8.18;;;4.10;;
66485;SDS011;53303;47.476;8.084;2023-06-10T02:49:58;10.95;;;3.88;;
66485;SDS011;53303;47.476;8.084;2023-06-10T02:52:23;9.95;;;4.00;;
66485;SDS011;53303;47.476;8.084;2023-06-10T02:54:50;8.30;;;4.15;;
66485;SDS011;53303;47.476;8.084;2023-06-10T02:57:15;7.10;;;3.90;;
66485;SDS011;53303;47.476;8.084;2023-06-10T02:59:43;8.07;;;3.55;;
66485;SDS011;53303;47.476;8.084;2023-06-10T03:02:08;13.45;;;4.57;;
66485;SDS011;53303;47.476;8.084;2023-06-10T03:04:33;7.05;;;3.83;;
66485;SDS011;53303;47.476;8.084;2023-06-10T03:07:02;9.43;;;4.10;;
66485;SDS011;53303;47.476;8.084;2023-06-10T03:09:32;10.45;;;4.00;;
66485;SDS011;53303;47.476;8.084;2023-06-10T03:11:57;8.57;;;4.20;;
66485;SDS011;53303;47.476;8.084;2023-06-10T03:14:25;8.57;;;4.40;;
66485;SDS011;53303;47.476;8.084;2023-06-10T03:16:53;10.05;;;4.50;;
66485;SDS011;53303;47.476;8.084;2023-06-10T03:19:18;8.95;;;4.22;;
66485;SDS011;53303;47.476;8.084;2023-06-10T03:21:49;9.77;;;3.95;;
66485;SDS011;53303;47.476;8.084;2023-06-10T03:24:15;10.63;;;3.80;;
66485;SDS011;53303;47.476;8.084;2023-06-10T03:26:42;9.60;;;4.13;;
66485;SDS011;53303;47.476;8.084;2023-06-10T03:29:10;10.55;;;4.55;;
66485;SDS011;53303;47.476;8.084;2023-06-10T03:31:35;10.68;;;4.50;;
66485;SDS011;53303;47.476;8.084;2023-06-10T03:34:03;11.27;;;4.82;;
66485;SDS011;53303;47.476;8.084;2023-06-10T03:36:31;9.93;;;3.67;;
66485;SDS011;53303;47.476;8.084;2023-06-10T03:38:56;12.23;;;4.30;;
66485;SDS011;53303;47.476;8.084;2023-06-10T03:41:24;10.77;;;4.10;;
66485;SDS011;53303;47.476;8.084;2023-06-10T03:43:54;13.60;;;3.90;;
66485;SDS011;53303;47.476;8.084;2023-06-10T03:46:19;11.48;;;4.60;;
66485;SDS011;53303;47.476;8.084;2023-06-10T03:48:45;12.95;;;4.22;;
66485;SDS011;53303;47.476;8.084;2023-06-10T03:51:10;10.43;;;3.80;;
66485;SDS011;53303;47.476;8.084;2023-06-10T03:53:36;10.77;;;3.97;;
66485;SDS011;53303;47.476;8.084;2023-06-10T03:56:01;7.72;;;3.65;;
66485;SDS011;53303;47.476;8.084;2023-06-10T03:58:29;10.60;;;3.95;;
66485;SDS011;53303;47.476;8.084;2023-06-10T04:00:54;10.20;;;3.97;;
66485;SDS011;53303;47.476;8.084;2023-06-10T04:03:20;8.63;;;3.50;;
66485;SDS011;53303;47.476;8.084;2023-06-10T04:05:48;11.60;;;4.30;;
66485;SDS011;53303;47.476;8.084;2023-06-10T04:08:15;8.40;;;3.83;;
66485;SDS011;53303;47.476;8.084;2023-06-10T04:10:40;9.88;;;4.60;;
66485;SDS011;53303;47.476;8.084;2023-06-10T04:13:06;7.97;;;4.53;;
66485;SDS011;53303;47.476;8.084;2023-06-10T04:15:31;12.77;;;4.68;;
66485;SDS011;53303;47.476;8.084;2023-06-10T04:17:59;8.30;;;4.57;;
66485;SDS011;53303;47.476;8.084;2023-06-10T04:20:29;10.85;;;4.60;;
66485;SDS011;53303;47.476;8.084;2023-06-10T04:22:55;10.48;;;3.78;;
66485;SDS011;53303;47.476;8.084;2023-06-10T04:25:20;8.30;;;4.15;;
66485;SDS011;53303;47.476;8.084;2023-06-10T04:27:46;8.07;;;4.03;;
66485;SDS011;53303;47.476;8.084;2023-06-10T04:30:11;9.50;;;4.07;;
66485;SDS011;53303;47.476;8.084;2023-06-10T04:32:37;8.00;;;3.60;;
66485;SDS011;53303;47.476;8.084;2023-06-10T04:35:03;8.93;;;3.67;;
66485;SDS011;53303;47.476;8.084;2023-06-10T04:37:30;8.85;;;3.63;;
66485;SDS011;53303;47.476;8.084;2023-06-10T04:39:57;10.32;;;3.65;;
66485;SDS011;53303;47.476;8.084;2023-06-10T04:42:25;11.48;;;4.32;;
66485;SDS011;53303;47.476;8.084;2023-06-10T04:44:50;12.90;;;4.03;;
66485;SDS011;53303;47.476;8.084;2023-06-10T04:47:16;8.32;;;3.83;;
66485;SDS011;53303;47.476;8.084;2023-06-10T04:49:42;7.93;;;3.72;;
66485;SDS011;53303;47.476;8.084;2023-06-10T04:52:07;10.40;;;4.63;;
66485;SDS011;53303;47.476;8.084;2023-06-10T04:54:33;8.90;;;4.15;;
66485;SDS011;53303;47.476;8.084;2023-06-10T04:56:58;6.60;;;4.10;;
66485;SDS011;53303;47.476;8.084;2023-06-10T04:59:26;8.98;;;4.47;;
66485;SDS011;53303;47.476;8.084;2023-06-10T05:01:51;8.90;;;4.32;;
66485;SDS011;53303;47.476;8.084;2023-06-10T05:04:19;12.82;;;4.28;;
66485;SDS011;53303;47.476;8.084;2023-06-10T05:06:47;9.68;;;4.03;;
66485;SDS011;53303;47.476;8.084;2023-06-10T05:09:13;9.00;;;3.50;;
66485;SDS011;53303;47.476;8.084;2023-06-10T05:11:38;13.15;;;3.85;;
66485;SDS011;53303;47.476;8.084;2023-06-10T05:14:04;8.30;;;4.40;;
66485;SDS011;53303;47.476;8.084;2023-06-10T05:16:30;8.15;;;4.40;;
66485;SDS011;53303;47.476;8.084;2023-06-10T05:18:58;10.38;;;4.20;;
66485;SDS011;53303;47.476;8.084;2023-06-10T05:21:24;9.80;;;3.80;;
66485;SDS011;53303;47.476;8.084;2023-06-10T05:23:49;9.27;;;3.95;;
66485;SDS011;53303;47.476;8.084;2023-06-10T05:26:17;10.07;;;4.05;;
66485;SDS011;53303;47.476;8.084;2023-06-10T05:28:44;9.35;;;3.97;;
66485;SDS011;53303;47.476;8.084;2023-06-10T05:31:10;9.43;;;3.72;;
66485;SDS011;53303;47.476;8.084;2023-06-10T05:33:35;14.05;;;4.43;;
66485;SDS011;53303;47.476;8.084;2023-06-10T05:36:01;8.88;;;3.67;;
66485;SDS011;53303;47.476;8.084;2023-06-10T05:38:27;8.20;;;4.13;;
66485;SDS011;53303;47.476;8.084;2023-06-10T05:40:52;9.55;;;4.15;;
66485;SDS011;53303;47.476;8.084;2023-06-10T05:43:17;11.32;;;4.18;;
66485;SDS011;53303;47.476;8.084;2023-06-10T05:45:43;11.18;;;3.90;;
66485;SDS011;53303;47.476;8.084;2023-06-10T05:48:08;8.40;;;4.15;;
66485;SDS011;53303;47.476;8.084;2023-06-10T05:50:34;9.38;;;3.72;;
66485;SDS011;53303;47.476;8.084;2023-06-10T05:53:03;11.45;;;4.40;;
66485;SDS011;53303;47.476;8.084;2023-06-10T05:55:31;9.15;;;4.30;;
66485;SDS011;53303;47.476;8.084;2023-06-10T05:58:00;11.52;;;3.92;;
66485;SDS011;53303;47.476;8.084;2023-06-10T06:00:28;9.88;;;4.05;;
66485;SDS011;53303;47.476;8.084;2023-06-10T06:02:53;8.70;;;4.28;;
66485;SDS011;53303;47.476;8.084;2023-06-10T06:05:19;8.75;;;3.92;;
66485;SDS011;53303;47.476;8.084;2023-06-10T06:07:45;8.27;;;4.30;;
66485;SDS011;53303;47.476;8.084;2023-06-10T06:10:10;12.02;;;4.28;;
66485;SDS011;53303;47.476;8.084;2023-06-10T06:12:35;9.15;;;3.92;;
66485;SDS011;53303;47.476;8.084;2023-06-10T06:15:01;9.65;;;4.32;;
66485;SDS011;53303;47.476;8.084;2023-06-10T06:17:27;9.57;;;4.10;;
66485;SDS011;53303;47.476;8.084;2023-06-10T06:19:52;8.82;;;4.07;;
66485;SDS011;53303;47.476;8.084;2023-06-10T06:22:18;8.65;;;4.22;;
66485;SDS011;53303;47.476;8.084;2023-06-10T06:24:47;7.43;;;4.32;;
66485;SDS011;53303;47.476;8.084;2023-06-10T06:27:12;8.75;;;4.13;;
66485;SDS011;53303;47.476;8.084;2023-06-10T06:29:40;11.15;;;4.47;;
66485;SDS011;53303;47.476;8.084;2023-06-10T06:32:05;10.32;;;4.60;;
66485;SDS011;53303;47.476;8.084;2023-06-10T06:34:31;13.13;;;4.47;;
66485;SDS011;53303;47.476;8.084;2023-06-10T06:36:57;14.35;;;4.63;;
66485;SDS011;53303;47.476;8.084;2023-06-10T06:39:22;10.60;;;4.32;;
66485;SDS011;53303;47.476;8.084;2023-06-10T06:41:48;10.23;;;5.03;;
66485;SDS011;53303;47.476;8.084;2023-06-10T06:44:13;11.40;;;4.40;;
66485;SDS011;53303;47.476;8.084;2023-06-10T06:46:38;13.20;;;4.22;;
66485;SDS011;53303;47.476;8.084;2023-06-10T06:49:04;11.02;;;5.15;;
66485;SDS011;53303;47.476;8.084;2023-06-10T06:51:29;18.35;;;5.00;;
66485;SDS011;53303;47.476;8.084;2023-06-10T06:53:55;11.95;;;4.63;;
66485;SDS011;53303;47.476;8.084;2023-06-10T06:56:23;11.70;;;4.50;;
66485;SDS011;53303;47.476;8.084;2023-06-10T06:58:49;10.15;;;4.20;;
66485;SDS011;53303;47.476;8.084;2023-06-10T07:01:14;10.07;;;4.13;;
66485;SDS011;53303;47.476;8.084;2023-06-10T07:03:40;8.75;;;4.53;;
66485;SDS011;53303;47.476;8.084;2023-06-10T07:06:05;13.93;;;4.82;;
66485;SDS011;53303;47.476;8.084;2023-06-10T07:08:31;12.35;;;4.75;;
66485;SDS011;53303;47.476;8.084;2023-06-10T07:10:56;8.40;;;3.97;;
66485;SDS011;53303;47.476;8.084;2023-06-10T07:13:21;9.32;;;4.15;;
66485;SDS011;53303;47.476;8.084;2023-06-10T07:15:49;10.57;;;4.78;;
66485;SDS011;53303;47.476;8.084;2023-06-10T07:18:15;13.80;;;4.70;;
66485;SDS011;53303;47.476;8.084;2023-06-10T07:20:41;15.07;;;5.00;;
66485;SDS011;53303;47.476;8.084;2023-06-10T07:23:06;10.30;;;4.50;;
66485;SDS011;53303;47.476;8.084;2023-06-10T07:25:32;9.32;;;4.25;;
66485;SDS011;53303;47.476;8.084;2023-06-10T07:27:57;15.70;;;4.53;;
66485;SDS011;53303;47.476;8.084;2023-06-10T07:30:22;7.35;;;4.05;;
66485;SDS011;53303;47.476;8.084;2023-06-10T07:32:48;8.98;;;4.72;;
66485;SDS011;53303;47.476;8.084;2023-06-10T07:35:13;10.10;;;4.93;;
66485;SDS011;53303;47.476;8.084;2023-06-10T07:37:39;8.80;;;4.70;;
66485;SDS011;53303;47.476;8.084;2023-06-10T07:40:04;13.88;;;4.40;;
66485;SDS011;53303;47.476;8.084;2023-06-10T07:42:31;10.98;;;5.22;;
66485;SDS011;53303;47.476;8.084;2023-06-10T07:44:58;8.65;;;4.30;;
66485;SDS011;53303;47.476;8.084;2023-06-10T07:47:23;8.57;;;4.30;;
66485;SDS011;53303;47.476;8.084;2023-06-10T07:49:48;8.95;;;4.38;;
66485;SDS011;53303;47.476;8.084;2023-06-10T07:52:16;11.35;;;4.68;;
66485;SDS011;53303;47.476;8.084;2023-06-10T07:54:41;7.88;;;4.57;;
66485;SDS011;53303;47.476;8.084;2023-06-10T07:57:07;11.68;;;4.63;;
66485;SDS011;53303;47.476;8.084;2023-06-10T07:59:32;8.45;;;4.32;;
66485;SDS011;53303;47.476;8.084;2023-06-10T08:01:58;8.48;;;4.40;;
66485;SDS011;53303;47.476;8.084;2023-06-10T08:04:23;9.10;;;4.60;;
66485;SDS011;53303;47.476;8.084;2023-06-10T08:06:49;9.20;;;4.35;;
66485;SDS011;53303;47.476;8.084;2023-06-10T08:09:14;7.80;;;3.88;;
66485;SDS011;53303;47.476;8.084;2023-06-10T08:11:40;7.50;;;4.18;;
66485;SDS011;53303;47.476;8.084;2023-06-10T08:14:07;11.13;;;4.68;;
66485;SDS011;53303;47.476;8.084;2023-06-10T08:16:35;10.68;;;4.50;;
66485;SDS011;53303;47.476;8.084;2023-06-10T08:19:01;9.18;;;4.60;;
66485;SDS011;53303;47.476;8.084;2023-06-10T08:21:26;9.77;;;4.28;;
66485;SDS011;53303;47.476;8.084;2023-06-10T08:23:54;8.13;;;4.32;;
66485;SDS011;53303;47.476;8.084;2023-06-10T08:26:20;9.68;;;4.22;;
66485;SDS011;53303;47.476;8.084;2023-06-10T08:28:45;8.50;;;5.20;;
66485;SDS011;53303;47.476;8.084;2023-06-10T08:31:14;10.88;;;5.03;;
66485;SDS011;53303;47.476;8.084;2023-06-10T08:33:42;7.22;;;4.30;;
66485;SDS011;53303;47.476;8.084;2023-06-10T08:36:10;9.18;;;5.13;;
66485;SDS011;53303;47.476;8.084;2023-06-10T08:38:36;8.23;;;4.38;;
66485;SDS011;53303;47.476;8.084;2023-06-10T08:41:01;9.48;;;4.30;;
66485;SDS011;53303;47.476;8.084;2023-06-10T08:43:34;7.95;;;4.90;;
66485;SDS011;53303;47.476;8.084;2023-06-10T08:46:07;10.18;;;4.35;;
66485;SDS011;53303;47.476;8.084;2023-06-10T08:48:34;9.90;;;4.75;;
66485;SDS011;53303;47.476;8.084;2023-06-10T08:51:07;8.18;;;4.65;;
66485;SDS011;53303;47.476;8.084;2023-06-10T08:53:36;7.85;;;4.05;;
66485;SDS011;53303;47.476;8.084;2023-06-10T08:56:07;9.43;;;5.43;;
66485;SDS011;53303;47.476;8.084;2023-06-10T08:58:35;9.95;;;4.70;;
66485;SDS011;53303;47.476;8.084;2023-06-10T09:01:07;7.22;;;4.25;;
66485;SDS011;53303;47.476;8.084;2023-06-10T09:03:34;8.55;;;4.95;;
66485;SDS011;53303;47.476;8.084;2023-06-10T09:06:05;8.50;;;4.82;;
66485;SDS011;53303;47.476;8.084;2023-06-10T09:08:33;7.60;;;4.45;;
66485;SDS011;53303;47.476;8.084;2023-06-10T09:11:00;10.07;;;4.70;;
66485;SDS011;53303;47.476;8.084;2023-06-10T09:13:25;8.23;;;4.70;;
66485;SDS011;53303;47.476;8.084;2023-06-10T09:15:51;7.55;;;4.40;;
66485;SDS011;53303;47.476;8.084;2023-06-10T09:18:16;9.35;;;4.35;;
66485;SDS011;53303;47.476;8.084;2023-06-10T09:20:44;7.60;;;4.97;;
66485;SDS011;53303;47.476;8.084;2023-06-10T09:23:10;9.13;;;5.38;;
66485;SDS011;53303;47.476;8.084;2023-06-10T09:25:36;9.25;;;4.93;;
66485;SDS011;53303;47.476;8.084;2023-06-10T09:28:03;9.13;;;4.75;;
66485;SDS011;53303;47.476;8.084;2023-06-10T09:30:32;7.45;;;4.43;;
66485;SDS011;53303;47.476;8.084;2023-06-10T09:33:02;9.65;;;4.78;;
66485;SDS011;53303;47.476;8.084;2023-06-10T09:35:37;8.68;;;5.10;;
66485;SDS011;53303;47.476;8.084;2023-06-10T09:38:19;8.10;;;4.45;;
66485;SDS011;53303;47.476;8.084;2023-06-10T09:40:49;7.90;;;5.28;;
66485;SDS011;53303;47.476;8.084;2023-06-10T09:43:16;8.70;;;4.45;;
66485;SDS011;53303;47.476;8.084;2023-06-10T09:45:41;7.57;;;4.32;;
66485;SDS011;53303;47.476;8.084;2023-06-10T09:48:08;8.27;;;4.53;;
66485;SDS011;53303;47.476;8.084;2023-06-10T09:50:45;9.32;;;4.95;;
66485;SDS011;53303;47.476;8.084;2023-06-10T09:53:11;8.95;;;4.40;;
66485;SDS011;53303;47.476;8.084;2023-06-10T09:55:37;8.07;;;4.80;;
66485;SDS011;53303;47.476;8.084;2023-06-10T09:58:04;8.38;;;5.22;;
66485;SDS011;53303;47.476;8.084;2023-06-10T10:00:31;8.48;;;5.55;;
66485;SDS011;53303;47.476;8.084;2023-06-10T10:02:58;8.27;;;5.25;;
66485;SDS011;53303;47.476;8.084;2023-06-10T10:05:28;8.48;;;4.70;;
66485;SDS011;53303;47.476;8.084;2023-06-10T10:07:55;8.63;;;4.97;;
66485;SDS011;53303;47.476;8.084;2023-06-10T10:10:21;7.53;;;5.18;;
66485;SDS011;53303;47.476;8.084;2023-06-10T10:12:47;9.07;;;5.15;;
66485;SDS011;53303;47.476;8.084;2023-06-10T10:15:16;7.32;;;4.38;;
66485;SDS011;53303;47.476;8.084;2023-06-10T10:20:17;8.82;;;5.18;;
66485;SDS011;53303;47.476;8.084;2023-06-10T10:22:47;9.52;;;4.80;;
66485;SDS011;53303;47.476;8.084;2023-06-10T10:25:29;11.27;;;4.80;;
66485;SDS011;53303;47.476;8.084;2023-06-10T10:28:07;9.80;;;4.28;;
66485;SDS011;53303;47.476;8.084;2023-06-10T10:30:39;9.93;;;5.30;;
66485;SDS011;53303;47.476;8.084;2023-06-10T10:33:36;10.25;;;4.88;;
66485;SDS011;53303;47.476;8.084;2023-06-10T10:36:10;10.27;;;4.88;;
66485;SDS011;53303;47.476;8.084;2023-06-10T10:38:37;9.38;;;5.20;;
66485;SDS011;53303;47.476;8.084;2023-06-10T10:41:02;8.23;;;4.85;;
66485;SDS011;53303;47.476;8.084;2023-06-10T10:43:30;9.52;;;5.22;;
66485;SDS011;53303;47.476;8.084;2023-06-10T10:45:59;6.93;;;4.72;;
66485;SDS011;53303;47.476;8.084;2023-06-10T10:48:25;6.95;;;4.75;;
66485;SDS011;53303;47.476;8.084;2023-06-10T10:50:57;10.32;;;4.90;;
66485;SDS011;53303;47.476;8.084;2023-06-10T10:53:24;9.63;;;5.07;;
66485;SDS011;53303;47.476;8.084;2023-06-10T10:56:06;9.48;;;5.45;;
66485;SDS011;53303;47.476;8.084;2023-06-10T10:58:37;9.07;;;5.50;;
66485;SDS011;53303;47.476;8.084;2023-06-10T11:01:10;11.23;;;4.85;;
66485;SDS011;53303;47.476;8.084;2023-06-10T11:03:45;9.60;;;5.43;;
66485;SDS011;53303;47.476;8.084;2023-06-10T11:06:12;9.80;;;4.70;;
66485;SDS011;53303;47.476;8.084;2023-06-10T11:16:26;8.85;;;5.28;;
66485;SDS011;53303;47.476;8.084;2023-06-10T11:18:56;8.77;;;4.85;;
66485;SDS011;53303;47.476;8.084;2023-06-10T11:21:25;9.68;;;5.05;;
66485;SDS011;53303;47.476;8.084;2023-06-10T11:23:53;9.48;;;5.05;;
66485;SDS011;53303;47.476;8.084;2023-06-10T11:26:20;10.63;;;5.30;;
66485;SDS011;53303;47.476;8.084;2023-06-10T11:31:21;10.55;;;4.97;;
66485;SDS011;53303;47.476;8.084;2023-06-10T11:33:59;10.05;;;5.00;;
66485;SDS011;53303;47.476;8.084;2023-06-10T11:36:30;11.18;;;4.80;;
66485;SDS011;53303;47.476;8.084;2023-06-10T11:38:57;8.68;;;4.97;;
66485;SDS011;53303;47.476;8.084;2023-06-10T11:41:25;10.68;;;4.97;;
66485;SDS011;53303;47.476;8.084;2023-06-10T11:43:52;9.13;;;4.85;;
66485;SDS011;53303;47.476;8.084;2023-06-10T11:46:17;9.45;;;5.40;;
66485;SDS011;53303;47.476;8.084;2023-06-10T11:48:50;10.13;;;5.20;;
66485;SDS011;53303;47.476;8.084;2023-06-10T11:51:16;11.05;;;5.40;;
66485;SDS011;53303;47.476;8.084;2023-06-10T11:53:46;8.68;;;5.00;;
66485;SDS011;53303;47.476;8.084;2023-06-10T11:56:12;11.35;;;5.40;;
66485;SDS011;53303;47.476;8.084;2023-06-10T11:58:37;11.73;;;5.40;;
66485;SDS011;53303;47.476;8.084;2023-06-10T12:01:10;8.23;;;5.03;;
66485;SDS011;53303;47.476;8.084;2023-06-10T12:03:38;8.32;;;4.95;;
66485;SDS011;53303;47.476;8.084;2023-06-10T12:06:04;8.75;;;5.15;;
66485;SDS011;53303;47.476;8.084;2023-06-10T12:08:31;8.50;;;5.50;;
66485;SDS011;53303;47.476;8.084;2023-06-10T12:10:57;9.50;;;5.63;;
66485;SDS011;53303;47.476;8.084;2023-06-10T12:13:26;8.45;;;5.05;;
66485;SDS011;53303;47.476;8.084;2023-06-10T12:15:53;10.93;;;5.00;;
66485;SDS011;53303;47.476;8.084;2023-06-10T12:18:19;9.68;;;5.38;;
66485;SDS011;53303;47.476;8.084;2023-06-10T12:20:46;8.73;;;4.90;;
66485;SDS011;53303;47.476;8.084;2023-06-10T12:23:15;8.95;;;4.70;;
66485;SDS011;53303;47.476;8.084;2023-06-10T12:25:51;8.27;;;5.38;;
66485;SDS011;53303;47.476;8.084;2023-06-10T12:28:20;9.75;;;5.15;;
66485;SDS011;53303;47.476;8.084;2023-06-10T12:30:49;10.20;;;5.30;;
66485;SDS011;53303;47.476;8.084;2023-06-10T12:33:16;7.70;;;5.00;;
66485;SDS011;53303;47.476;8.084;2023-06-10T12:35:49;13.02;;;6.03;;
66485;SDS011;53303;47.476;8.084;2023-06-10T12:38:24;7.90;;;5.00;;
66485;SDS011;53303;47.476;8.084;2023-06-10T12:40:53;11.48;;;5.53;;
66485;SDS011;53303;47.476;8.084;2023-06-10T12:43:22;9.65;;;4.80;;
66485;SDS011;53303;47.476;8.084;2023-06-10T12:45:48;9.52;;;4.90;;
66485;SDS011;53303;47.476;8.084;2023-06-10T12:48:18;8.63;;;5.20;;
66485;SDS011;53303;47.476;8.084;2023-06-10T12:50:44;8.88;;;5.90;;
66485;SDS011;53303;47.476;8.084;2023-06-10T12:53:12;11.65;;;5.72;;
66485;SDS011;53303;47.476;8.084;2023-06-10T12:55:37;9.23;;;5.28;;
66485;SDS011;53303;47.476;8.084;2023-06-10T12:58:03;8.60;;;4.78;;
66485;SDS011;53303;47.476;8.084;2023-06-10T13:00:31;10.70;;;5.63;;
66485;SDS011;53303;47.476;8.084;2023-06-10T13:02:57;9.88;;;5.35;;
66485;SDS011;53303;47.476;8.084;2023-06-10T13:05:26;9.00;;;5.60;;
66485;SDS011;53303;47.476;8.084;2023-06-10T13:07:51;8.93;;;5.07;;
66485;SDS011;53303;47.476;8.084;2023-06-10T13:10:17;9.23;;;5.65;;
66485;SDS011;53303;47.476;8.084;2023-06-10T13:12:43;11.23;;;5.32;;
66485;SDS011;53303;47.476;8.084;2023-06-10T13:15:09;12.60;;;5.03;;
66485;SDS011;53303;47.476;8.084;2023-06-10T13:17:35;10.93;;;5.30;;
66485;SDS011;53303;47.476;8.084;2023-06-10T13:20:04;8.75;;;5.60;;
66485;SDS011;53303;47.476;8.084;2023-06-10T13:22:31;10.18;;;5.25;;
66485;SDS011;53303;47.476;8.084;2023-06-10T13:25:01;11.65;;;5.78;;
66485;SDS011;53303;47.476;8.084;2023-06-10T13:27:30;10.38;;;5.47;;
66485;SDS011;53303;47.476;8.084;2023-06-10T13:29:56;12.57;;;5.93;;
66485;SDS011;53303;47.476;8.084;2023-06-10T13:32:21;9.35;;;4.93;;
66485;SDS011;53303;47.476;8.084;2023-06-10T13:34:47;11.88;;;5.30;;
66485;SDS011;53303;47.476;8.084;2023-06-10T13:37:14;9.02;;;5.57;;
66485;SDS011;53303;47.476;8.084;2023-06-10T13:39:42;12.10;;;5.43;;
66485;SDS011;53303;47.476;8.084;2023-06-10T13:42:07;11.07;;;6.10;;
66485;SDS011;53303;47.476;8.084;2023-06-10T13:44:36;9.13;;;5.50;;
66485;SDS011;53303;47.476;8.084;2023-06-10T13:47:04;9.40;;;5.90;;
66485;SDS011;53303;47.476;8.084;2023-06-10T13:49:32;10.77;;;5.93;;
66485;SDS011;53303;47.476;8.084;2023-06-10T13:52:00;9.93;;;4.97;;
66485;SDS011;53303;47.476;8.084;2023-06-10T13:54:28;9.57;;;4.97;;
66485;SDS011;53303;47.476;8.084;2023-06-10T13:56:54;10.40;;;5.85;;
66485;SDS011;53303;47.476;8.084;2023-06-10T13:59:19;10.48;;;5.50;;
66485;SDS011;53303;47.476;8.084;2023-06-10T14:01:46;11.30;;;5.50;;
66485;SDS011;53303;47.476;8.084;2023-06-10T14:04:11;10.30;;;5.57;;
66485;SDS011;53303;47.476;8.084;2023-06-10T14:06:37;10.43;;;6.00;;
66485;SDS011;53303;47.476;8.084;2023-06-10T14:09:02;8.30;;;5.10;;
66485;SDS011;53303;47.476;8.084;2023-06-10T14:11:28;8.88;;;5.70;;
66485;SDS011;53303;47.476;8.084;2023-06-10T14:13:53;9.57;;;5.88;;
66485;SDS011;53303;47.476;8.084;2023-06-10T14:16:22;9.18;;;5.25;;
66485;SDS011;53303;47.476;8.084;2023-06-10T14:18:48;8.82;;;5.38;;
66485;SDS011;53303;47.476;8.084;2023-06-10T14:21:15;11.10;;;5.90;;
66485;SDS011;53303;47.476;8.084;2023-06-10T14:23:41;11.10;;;5.43;;
66485;SDS011;53303;47.476;8.084;2023-06-10T14:26:08;9.98;;;5.75;;
66485;SDS011;53303;47.476;8.084;2023-06-10T14:28:35;9.48;;;5.55;;
66485;SDS011;53303;47.476;8.084;2023-06-10T14:31:01;14.00;;;5.90;;
66485;SDS011;53303;47.476;8.084;2023-06-10T14:33:26;12.07;;;6.15;;
66485;SDS011;53303;47.476;8.084;2023-06-10T14:35:52;10.88;;;5.90;;
66485;SDS011;53303;47.476;8.084;2023-06-10T14:38:17;10.77;;;6.22;;
66485;SDS011;53303;47.476;8.084;2023-06-10T14:40:47;13.23;;;5.47;;
66485;SDS011;53303;47.476;8.084;2023-06-10T14:43:13;9.77;;;5.88;;
66485;SDS011;53303;47.476;8.084;2023-06-10T14:45:39;10.02;;;5.65;;
66485;SDS011;53303;47.476;8.084;2023-06-10T14:48:05;10.52;;;5.65;;
66485;SDS011;53303;47.476;8.084;2023-06-10T14:50:31;11.15;;;5.95;;
66485;SDS011;53303;47.476;8.084;2023-06-10T14:52:58;12.85;;;5.95;;
66485;SDS011;53303;47.476;8.084;2023-06-10T14:55:23;12.18;;;5.28;;
66485;SDS011;53303;47.476;8.084;2023-06-10T14:57:49;11.48;;;5.85;;
66485;SDS011;53303;47.476;8.084;2023-06-10T15:00:15;12.68;;;5.80;;
66485;SDS011;53303;47.476;8.084;2023-06-10T15:02:44;10.77;;;5.47;;
66485;SDS011;53303;47.476;8.084;2023-06-10T15:05:09;12.10;;;6.10;;
66485;SDS011;53303;47.476;8.084;2023-06-10T15:07:35;12.43;;;6.18;;
66485;SDS011;53303;47.476;8.084;2023-06-10T15:10:00;10.95;;;5.53;;
66485;SDS011;53303;47.476;8.084;2023-06-10T15:12:28;10.18;;;5.47;;